AirNav   Air Wisconsin pilot careers
 
 379 users online  

CL01 Eagle Field Airport
Dos Palos, California, USA

GOING TO DOS PALOS?


FAA INFORMATION EFFECTIVE 24 MAY 2018

Location

FAA Identifier: CL01
Lat/Long: 36-53-59.8140N / 120-40-03.6570W
36-53.996900N / 120-40.060950W
36.8999483 / -120.6676825
(estimated)
Elevation: 153 ft. / 47 m (estimated)
Variation: 15E (1985)
From city: 7 miles SW of DOS PALOS, CA
Time zone: UTC -7 (UTC -8 during Standard Time)
Zip code: 93622

Airport Operations

Airport use: Private use. Permission required prior to landing
Activation date: 11/1983
Control tower: no
ARTCC: OAKLAND CENTER
FSS: RANCHO MURIETA FLIGHT SERVICE STATION
Attendance: MON-FRI 1000-1700
Wind indicator: yes
Segmented circle: no

Airport Communications

WX AWOS-3 at LSN (14 nm NW): 118.675 (209-827-7084)

Nearby radio navigation aids

VOR radial/distance  VOR name  Freq  Var
PXNr010/12.3PANOCHE VORTAC112.6016E
HYPr199/23.1EL NIDO VOR/DME114.2015E

Airport Services

Runway Information

Runway 12/30

Dimensions: 2300 x 60 ft. / 701 x 18 m
Surface: asphalt, in good condition
RUNWAY 12  RUNWAY 30
Traffic pattern: rightright

Airport Ownership and Management from official FAA records

Ownership: Privately-owned
Owner: JOSEPH L. DAVIS
11100 W EAGLE AVE
FIREBAUGH, CA 93622
Phone (559) 269-7923
WORK PHONE 559-269-7923
Manager: JOE DAVIS
11100 W EAGLE AVE
FIREBAUGH, CA 93622
Phone (559) 269-7923

Airport Operational Statistics

Aircraft based on the field: 3
Single engine airplanes: 1
Multi engine airplanes: 1
Jet airplanes: 1
    

Instrument Procedures

There are no published instrument procedures at CL01.

Some nearby airports with instrument procedures:

F34 - Firebaugh Airport (10 nm E)
KLSN - Los Banos Municipal Airport (14 nm NW)
KMCE - Merced Regional Airport/Macready Field (24 nm N)
KMAE - Madera Municipal Airport (27 nm E)
KMER - Castle Airport (29 nm N)
 
Loc | Ops | Rwys | IFR | FBO | Links
Com | Nav | Svcs | Stats | Notes

AirNav Hotels Sweepstakes
 
Area around CL01 (Eagle Field Airport)
 
Road maps at: MapQuest Bing Google
 
Aerial photo
WARNING: Photo may not be current or correct
Aerial photo of CL01 (Eagle Field Airport)
Do you have a better or more recent aerial photo of Eagle Field Airport that you would like to share? If so, please send us your photo.

 
Sectional chart

 
Airport distance calculator
Flying to Eagle Field Airport? Find the distance to fly.

From to CL01

Sunrise and sunset
Times for 26-May-2018
 Local
(UTC-7)
 Zulu
(UTC)
Morning civil twilight05:1912:19
Sunrise05:4812:48
Sunset20:1103:11
Evening civil twilight20:4103:41

Current date and time
Zulu (UTC)  27-May-2018 06:11:00
Local (UTC-7)  26-May-2018 23:11:00
 
METAR
KMCE 
24nm N 
270553Z AUTO 26006KT 10SM CLR 17/12 A2997 RMK AO2 SLP147 T01670122 10239 20167 53006
KMAE 
27nm E 
270553Z AUTO 29009KT 10SM CLR 18/12 A2997 RMK AO2 SLP146 T01780117 10244 20172 50003
KMER 
29nm N 
270345Z 33005KT 10SM SKC 18/12 A2996
KCVH 
36nm W 
270555Z AUTO 00000KT 10SM CLR 12/09 A3005 RMK A01
KFCH 
42nm E 
270555Z AUTO A2996 RMK A01
KMOD 
45nm N 
270553Z AUTO 31011KT 10SM CLR 17/11 A2997 RMK AO2 SLP148 T01720106 10244 20172 52002
KE16 
46nm W 
270555Z AUTO 15004KT 10SM BKN017 OVC023 12/09 A3007 RMK AO2
KFAT 
46nm E 
270553Z 29010KT 10SM SCT065 20/11 A2997 RMK AO2 SLP145 T02000106 10256 20200 51006
KSNS 
47nm W 
270553Z AUTO 31006KT 10SM FEW017 13/09 A3005 RMK AO2 SLP184 T01280094 10150 20128 58002
TAF
KMCE 
24nm N 
270520Z 2706/2806 32006KT P6SM SKC
KMER 
29nm N 
270520Z 2706/2806 32006KT P6SM SKC AMD NOT SKED
NOTAMs
Click for the latest NOTAMs
NOTAMs are issued by the DoD/FAA and will open in a separate window not controlled by AirNav.

 

 
 

Things to do: Attractions on or near the airport

  
 Business Name 
 
 Contact 
 
 Services / Description 
 
Distance
 
Comments
  
Central California Historical Military Museum 209-392-8264
no information available

If you are affiliated with Central California Historical Military Museum and would like to show here your services, contact info, web link, logo, and more, click here
on airport  
   write
 

Would you like to see your business listed on this page?

 If your business provides an interesting product or service to pilots, flight crews, aircraft, or users of the Eagle Field Airport, you should consider listing it here.  To start the listing process, click on the button below
 
Add a business
 

Other Pages about Eagle Field Airport

www.eaglefield.org
 
Update a link
 
Copyright © AirNav, LLC. All rights reserved. Privacy Policy  Contact